Terminal Aerodrome Forecast
Issued by NWS St Louis, MO

Home | Current Version | Previous Version | Graphics & Text | Print | Product List | Glossary On
Versions: 1 2 3 4 5 6 7 8 9 10 11 12 13 14 15 16 17 18 19 20 21 22 23 24 25 26 27 28 29 30 31 32
000
FTUS43 KLSX 072320
TAFSTL
TAF
KSTL 072320Z 0800/0906 04008KT 6SM -RA OVC015
     FM081200 09006KT 5SM -SHRA BR OVC010
     FM081800 09014KT 3SM -SHRA BR VCTS OVC015CB
     FM090300 20011KT P6SM VCTS SCT007CB OVC015=

USA.gov is the U.S. government's official web portal to all federal, state and local government web resources and services.